Time;durP1;ratioP1;P1;durP2;ratioP2;P2;SDS_P1;SDS_P2;PMS_P1;PMS_P2;Temp;Humidity;BMP_temperature;BMP_pressure;BME280_temperature;BME280_humidity;BME280_pressure;Samples;Min_cycle;Max_cycle;Signal;HPM_P1;HPM_P2
2023/10/28 00:00:13;;;;;;;0.70;0.60;;;;;;;10.54;100.00;95396.88;5111593;28;20205;-56
2023/10/28 00:02:40;;;;;;;0.60;0.60;;;;;;;10.67;100.00;95386.56;5111721;28;20634;-56
2023/10/28 00:05:07;;;;;;;0.57;0.50;;;;;;;10.65;100.00;95393.84;5112070;28;20655;-56
2023/10/28 00:07:34;;;;;;;0.90;0.63;;;;;;;10.66;100.00;95398.16;5112868;28;20213;-56
2023/10/28 00:10:01;;;;;;;0.70;0.50;;;;;;;10.61;100.00;95392.56;5113351;28;20315;-56
2023/10/28 00:12:28;;;;;;;0.90;0.53;;;;;;;10.72;100.00;95383.41;5111712;28;20213;-56
2023/10/28 00:14:54;;;;;;;1.63;0.30;;;;;;;10.59;100.00;95391.09;5111809;28;20205;-57
2023/10/28 00:17:24;;;;;;;1.93;0.83;;;;;;;10.56;100.00;95394.88;5094513;28;20201;-55
2023/10/28 00:19:50;;;;;;;0.70;0.70;;;;;;;10.57;100.00;95401.81;5112120;28;20767;-56
2023/10/28 00:22:17;;;;;;;0.67;0.63;;;;;;;10.53;100.00;95400.53;5112499;28;20216;-56
2023/10/28 00:24:44;;;;;;;2.50;0.90;;;;;;;10.55;100.00;95408.28;5112311;28;20250;-56
2023/10/28 00:27:10;;;;;;;0.70;0.70;;;;;;;10.51;100.00;95396.41;5112785;28;20209;-56
2023/10/28 00:29:37;;;;;;;1.10;0.77;;;;;;;10.46;100.00;95404.84;5112283;28;20205;-56
2023/10/28 00:32:05;;;;;;;0.57;0.47;;;;;;;10.46;100.00;95407.50;5112478;28;20197;-57
2023/10/28 00:34:33;;;;;;;0.90;0.57;;;;;;;10.46;100.00;95410.13;5111508;28;20310;-56
2023/10/28 00:37:00;;;;;;;1.07;0.70;;;;;;;10.39;100.00;95411.81;5112646;28;20216;-56
2023/10/28 00:39:26;;;;;;;0.70;0.60;;;;;;;10.48;100.00;95402.88;5111770;28;20233;-56
2023/10/28 00:41:53;;;;;;;1.20;0.60;;;;;;;10.51;100.00;95413.09;5112363;28;20197;-56
2023/10/28 00:44:22;;;;;;;0.80;0.80;;;;;;;10.49;100.00;95421.19;5111568;28;20244;-56
2023/10/28 00:46:48;;;;;;;2.30;1.00;;;;;;;10.48;100.00;95419.56;5112588;28;20288;-55
2023/10/28 00:49:15;;;;;;;1.73;0.97;;;;;;;10.48;100.00;95413.44;5111900;28;20201;-56
2023/10/28 00:51:45;;;;;;;0.97;0.80;;;;;;;10.47;100.00;95417.06;5111283;28;20308;-56
2023/10/28 00:54:11;;;;;;;2.90;0.43;;;;;;;10.51;100.00;95410.44;5111462;28;20614;-56
2023/10/28 00:56:38;;;;;;;0.63;0.60;;;;;;;10.58;100.00;95402.66;5111930;28;20208;-55
2023/10/28 00:59:06;;;;;;;1.30;0.77;;;;;;;10.59;100.00;95402.50;5111316;28;20201;-56
2023/10/28 01:01:33;;;;;;;2.83;1.10;;;;;;;10.66;100.00;95405.25;5112374;28;20257;-56
2023/10/28 01:04:01;;;;;;;2.00;0.70;;;;;;;10.64;100.00;95410.72;5111881;28;20633;-56
2023/10/28 01:06:28;;;;;;;0.63;0.63;;;;;;;10.70;100.00;95407.38;5110874;28;20647;-56
2023/10/28 01:08:56;;;;;;;1.13;0.53;;;;;;;10.72;100.00;95408.03;5110508;28;20205;-57
2023/10/28 01:11:22;;;;;;;2.57;1.17;;;;;;;10.69;100.00;95400.44;5110667;28;20669;-56
2023/10/28 01:13:50;;;;;;;1.00;0.90;;;;;;;10.66;100.00;95398.16;5110236;28;20218;-54
2023/10/28 01:16:17;;;;;;;2.70;0.90;;;;;;;10.60;100.00;95395.34;5111090;28;20296;-57
2023/10/28 01:18:43;;;;;;;1.10;0.80;;;;;;;10.51;100.00;95391.13;5110615;28;20204;-56
2023/10/28 01:21:12;;;;;;;0.70;0.70;;;;;;;10.53;100.00;95389.94;5111810;28;20216;-56
2023/10/28 01:23:38;;;;;;;0.73;0.40;;;;;;;10.37;100.00;95374.19;5123299;28;20213;-56
2023/10/28 01:26:05;;;;;;;1.50;0.70;;;;;;;10.39;100.00;95377.47;5127664;28;20189;-56
2023/10/28 01:28:32;;;;;;;0.83;0.70;;;;;;;10.40;100.00;95376.47;5124236;28;20195;-56
2023/10/28 01:31:00;;;;;;;3.40;0.70;;;;;;;10.42;100.00;95371.84;5120880;28;20549;-56
2023/10/28 01:33:28;;;;;;;0.60;0.50;;;;;;;10.45;100.00;95384.72;5115231;28;20712;-57
2023/10/28 01:35:55;;;;;;;1.10;0.80;;;;;;;10.39;100.00;95377.47;5111305;28;20266;-57
2023/10/28 01:38:24;;;;;;;2.83;0.93;;;;;;;10.39;100.00;95382.75;5110429;28;20197;-56
2023/10/28 01:40:51;;;;;;;0.77;0.57;;;;;;;10.29;100.00;95379.50;5110824;28;20251;-56
2023/10/28 01:43:18;;;;;;;0.70;0.70;;;;;;;10.33;100.00;95379.00;5110469;28;20262;-55
2023/10/28 01:45:45;;;;;;;1.77;0.70;;;;;;;10.30;100.00;95378.50;5110747;28;20236;-56
2023/10/28 01:48:12;;;;;;;1.53;0.90;;;;;;;10.26;100.00;95372.75;5110972;28;20522;-56
2023/10/28 01:50:38;;;;;;;0.70;0.70;;;;;;;10.29;100.00;95371.56;5110761;28;20221;-56
2023/10/28 01:53:05;;;;;;;1.23;0.80;;;;;;;10.33;100.00;95370.25;5110199;28;20205;-56
2023/10/28 01:55:35;;;;;;;1.57;0.70;;;;;;;10.27;100.00;95363.00;5110269;28;20208;-55
2023/10/28 01:58:01;;;;;;;0.70;0.70;;;;;;;10.29;100.00;95355.72;5110379;28;20520;-56
2023/10/28 02:00:30;;;;;;;2.37;1.10;;;;;;;10.30;100.00;95362.66;5110462;28;20634;-56
2023/10/28 02:02:57;;;;;;;1.07;0.97;;;;;;;10.27;100.00;95363.81;5113416;28;20625;-56
2023/10/28 02:05:25;;;;;;;0.80;0.60;;;;;;;10.32;100.00;95360.66;5115172;28;20258;-56
2023/10/28 02:07:51;;;;;;;0.77;0.70;;;;;;;10.30;100.00;95360.03;5115756;28;20201;-56
2023/10/28 02:10:18;;;;;;;1.90;0.90;;;;;;;10.24;100.00;95363.31;5116644;28;20228;-56
2023/10/28 02:12:49;;;;;;;1.60;0.77;;;;;;;10.23;100.00;95361.69;5116325;28;20193;-56
2023/10/28 02:15:16;;;;;;;1.33;0.80;;;;;;;10.16;100.00;95366.03;5115620;28;20250;-57
2023/10/28 02:17:45;;;;;;;1.33;0.70;;;;;;;10.09;100.00;95367.69;5116291;28;20312;-56
2023/10/28 02:20:13;;;;;;;3.67;1.10;;;;;;;10.08;100.00;95358.09;5114827;28;20213;-56
2023/10/28 02:22:40;;;;;;;0.90;0.60;;;;;;;10.13;100.00;95356.56;5115241;28;20288;-56
2023/10/28 02:25:09;;;;;;;0.53;0.53;;;;;;;10.11;100.00;95363.03;5117388;28;20358;-56
2023/10/28 02:27:37;;;;;;;2.57;1.13;;;;;;;10.15;100.00;95367.84;5118520;28;20243;-57
2023/10/28 02:30:06;;;;;;;0.83;0.83;;;;;;;10.07;100.00;95367.84;5120873;28;20205;-55
2023/10/28 02:32:34;;;;;;;1.13;0.90;;;;;;;10.07;100.00;95372.28;5120932;28;20201;-56
2023/10/28 02:35:00;;;;;;;1.23;0.50;;;;;;;9.96;100.00;95370.84;5121258;28;20208;-56
2023/10/28 02:37:27;;;;;;;0.93;0.73;;;;;;;9.91;100.00;95374.00;5122151;28;20211;-56
2023/10/28 02:39:54;;;;;;;1.67;0.83;;;;;;;9.93;100.00;95373.81;5120332;28;20205;-56
2023/10/28 02:42:22;;;;;;;2.37;0.70;;;;;;;9.81;100.00;95380.47;5123798;28;20193;-56
2023/10/28 02:44:48;;;;;;;2.93;0.97;;;;;;;9.63;100.00;95379.84;5118805;28;20221;-56
2023/10/28 02:47:16;;;;;;;2.07;0.83;;;;;;;9.58;100.00;95385.63;5120533;28;20205;-56
2023/10/28 02:49:42;;;;;;;0.97;0.60;;;;;;;9.42;100.00;95383.81;5120479;28;20201;-56
2023/10/28 02:52:09;;;;;;;1.00;0.67;;;;;;;9.34;100.00;95383.84;5116684;28;20225;-56
2023/10/28 02:54:36;;;;;;;2.13;0.60;;;;;;;9.26;100.00;95383.00;5114149;28;20197;-56
2023/10/28 02:57:03;;;;;;;1.60;0.90;;;;;;;9.25;100.00;95389.28;5114088;28;20545;-56
2023/10/28 02:59:29;;;;;;;1.80;0.63;;;;;;;9.23;100.00;95388.63;5113993;28;20201;-56
2023/10/28 03:01:56;;;;;;;0.93;0.80;;;;;;;9.11;100.00;95380.22;5113735;28;20189;-56
2023/10/28 03:04:24;;;;;;;0.60;0.60;;;;;;;9.05;100.00;95386.16;5113614;28;20281;-56
2023/10/28 03:06:51;;;;;;;1.90;0.90;;;;;;;8.95;100.00;95390.75;5113246;28;20224;-56
2023/10/28 03:09:18;;;;;;;1.20;0.53;;;;;;;8.88;100.00;95380.06;5113400;28;20205;-55
2023/10/28 03:11:45;;;;;;;2.40;1.00;;;;;;;8.85;100.00;95384.81;5112978;28;20217;-55
2023/10/28 03:14:12;;;;;;;2.30;0.87;;;;;;;8.79;100.00;95385.44;5111994;28;20288;-56
2023/10/28 03:16:39;;;;;;;2.50;0.93;;;;;;;8.72;100.00;95389.72;5112986;28;20197;-56
2023/10/28 03:19:05;;;;;;;1.60;0.70;;;;;;;8.68;100.00;95386.59;5113569;28;20598;-55
2023/10/28 03:21:34;;;;;;;1.87;0.60;;;;;;;8.70;100.00;95397.81;5113159;28;20530;-56
2023/10/28 03:24:00;;;;;;;4.50;0.93;;;;;;;8.61;100.00;95387.44;5113759;28;20205;-56
2023/10/28 03:26:27;;;;;;;3.03;0.70;;;;;;;8.59;100.00;95386.75;5113173;28;20201;-56
2023/10/28 03:28:54;;;;;;;1.70;1.60;;;;;;;8.57;100.00;95386.94;5113266;28;20205;-55
2023/10/28 03:31:20;;;;;;;1.30;1.20;;;;;;;8.56;100.00;95384.44;5113142;28;20870;-56
2023/10/28 03:33:47;;;;;;;3.13;1.03;;;;;;;8.60;100.00;95389.22;5112974;28;20208;-56
2023/10/28 03:36:14;;;;;;;3.23;1.20;;;;;;;8.58;100.00;95399.09;5113091;28;20206;-56
2023/10/28 03:38:42;;;;;;;2.60;1.10;;;;;;;8.53;100.00;95382.97;5113020;28;20212;-56
2023/10/28 03:41:08;;;;;;;1.97;0.80;;;;;;;8.58;100.00;95387.72;5112991;28;20208;-56
2023/10/28 03:43:36;;;;;;;0.70;0.70;;;;;;;8.59;100.00;95382.31;5111971;28;20236;-56
2023/10/28 03:46:03;;;;;;;1.93;0.60;;;;;;;8.61;100.00;95390.84;5112834;28;20193;-56
2023/10/28 03:48:30;;;;;;;1.90;1.00;;;;;;;8.57;100.00;95386.94;5112596;28;20534;-55
2023/10/28 03:51:02;;;;;;;2.30;1.10;;;;;;;8.58;100.00;95399.09;5112421;28;20527;-56
2023/10/28 03:53:30;;;;;;;0.47;0.47;;;;;;;8.66;100.00;95391.22;5113353;28;20201;-56
2023/10/28 03:55:58;;;;;;;1.37;0.90;;;;;;;8.74;100.00;95399.13;5112424;28;20298;-56
2023/10/28 03:58:25;;;;;;;1.10;0.63;;;;;;;8.86;100.00;95407.53;5112997;28;20213;-56
2023/10/28 04:00:53;;;;;;;1.10;0.67;;;;;;;8.78;100.00;95392.56;5113169;28;20202;-56
2023/10/28 04:03:19;;;;;;;1.23;0.90;;;;;;;8.89;100.00;95396.69;5113730;28;20224;-56
2023/10/28 04:05:46;;;;;;;0.67;0.67;;;;;;;8.83;100.00;95407.88;5112666;28;20625;-55
2023/10/28 04:08:12;;;;;;;0.83;0.70;;;;;;;8.87;100.00;95396.03;5113076;28;20479;-56
2023/10/28 04:10:39;;;;;;;1.33;0.90;;;;;;;8.86;100.00;95392.56;5111418;28;20225;-56
2023/10/28 04:13:07;;;;;;;0.77;0.63;;;;;;;8.84;100.00;95385.81;5111269;28;20290;-56
2023/10/28 04:15:35;;;;;;;2.63;0.70;;;;;;;8.92;100.00;95402.47;5112397;28;20201;-55
2023/10/28 04:18:01;;;;;;;0.90;0.70;;;;;;;8.96;100.00;95402.97;5111983;28;20230;-55
2023/10/28 04:20:28;;;;;;;1.53;0.80;;;;;;;8.94;100.00;95395.22;5112523;28;20228;-56
2023/10/28 04:22:55;;;;;;;1.77;0.70;;;;;;;8.89;100.00;95386.94;5120490;28;20223;-55
2023/10/28 04:25:21;;;;;;;1.30;0.60;;;;;;;8.94;100.00;95397.84;5120862;28;20209;-56
2023/10/28 04:27:48;;;;;;;1.07;0.57;;;;;;;8.96;100.00;95401.13;5115939;28;20209;-55
2023/10/28 04:30:18;;;;;;;0.73;0.73;;;;;;;8.90;100.00;95393.88;5112403;28;20201;-56
2023/10/28 04:32:45;;;;;;;1.47;0.70;;;;;;;8.87;100.00;95396.03;5112700;28;20547;-56
2023/10/28 04:35:12;;;;;;;1.33;0.80;;;;;;;8.77;100.00;95395.34;5113639;28;20205;-55
2023/10/28 04:37:38;;;;;;;0.73;0.60;;;;;;;8.69;100.00;95395.31;5113289;28;20209;-56
2023/10/28 04:40:06;;;;;;;0.57;0.50;;;;;;;8.60;100.00;95402.41;5112428;28;20622;-55
2023/10/28 04:42:33;;;;;;;2.40;0.70;;;;;;;8.50;100.00;95399.09;5112390;28;20197;-56
2023/10/28 04:45:04;;;;;;;1.03;0.90;;;;;;;8.45;100.00;95396.94;5112152;28;20673;-56
2023/10/28 04:47:36;;;;;;;4.77;1.13;;;;;;;8.45;100.00;95393.47;5112327;28;20205;-56
2023/10/28 04:50:04;;;;;;;1.17;0.70;;;;;;;8.30;100.00;95395.06;5112361;28;20215;-55
2023/10/28 04:52:31;;;;;;;1.40;0.60;;;;;;;8.33;100.00;95400.84;5111627;28;20916;-56
2023/10/28 04:54:58;;;;;;;1.60;0.73;;;;;;;8.27;100.00;95395.34;5094210;28;20294;-55
2023/10/28 04:57:27;;;;;;;1.80;1.10;;;;;;;8.25;100.00;95397.34;5111932;28;20205;-55
2023/10/28 04:59:55;;;;;;;2.00;0.60;;;;;;;8.16;100.00;95387.72;5111852;28;20300;-56
2023/10/28 05:02:22;;;;;;;2.63;0.90;;;;;;;8.19;100.00;95392.69;5112328;28;20202;-56
2023/10/28 05:04:50;;;;;;;0.97;0.80;;;;;;;8.17;100.00;95399.94;5112421;28;20209;-56
2023/10/28 05:07:16;;;;;;;0.57;0.57;;;;;;;8.23;100.00;95404.53;5111530;28;20209;-56
2023/10/28 05:09:43;;;;;;;0.60;0.60;;;;;;;8.44;100.00;95404.97;5112480;28;20527;-56
2023/10/28 05:12:10;;;;;;;1.17;0.70;;;;;;;8.48;100.00;95398.41;5111862;28;20240;-56
2023/10/28 05:14:39;;;;;;;1.37;0.60;;;;;;;8.65;100.00;95389.56;5110855;28;20208;-56
2023/10/28 05:17:08;;;;;;;1.80;0.50;;;;;;;8.75;100.00;95390.22;5111676;28;20209;-56
2023/10/28 05:19:35;;;;;;;0.40;0.30;;;;;;;8.84;100.00;95386.63;5111310;28;20196;-56
2023/10/28 05:22:03;;;;;;;1.13;0.70;;;;;;;8.98;100.00;95388.63;5112121;28;20197;-55
2023/10/28 05:24:30;;;;;;;0.90;0.60;;;;;;;9.04;100.00;95386.31;5112261;28;20212;-56
2023/10/28 05:26:58;;;;;;;1.60;0.60;;;;;;;9.15;100.00;95388.63;5111735;28;20216;-56
2023/10/28 05:29:24;;;;;;;0.80;0.60;;;;;;;9.19;100.00;95390.78;5111878;28;20201;-55
2023/10/28 05:31:56;;;;;;;0.30;0.30;;;;;;;9.17;100.00;95399.84;5111711;28;20217;-56
2023/10/28 05:34:24;;;;;;;0.43;0.43;;;;;;;9.20;100.00;95402.16;5111848;28;20201;-56
2023/10/28 05:36:51;;;;;;;0.97;0.60;;;;;;;9.25;100.00;95405.09;5112656;28;20197;-56
2023/10/28 05:39:20;;;;;;;2.37;1.03;;;;;;;9.12;100.00;95413.50;5115527;28;20216;-55
2023/10/28 05:41:47;;;;;;;1.03;0.93;;;;;;;8.92;100.00;95425.38;5115936;28;20292;-56
2023/10/28 05:44:14;;;;;;;0.70;0.67;;;;;;;8.87;100.00;95430.28;5114473;28;20258;-56
2023/10/28 05:46:41;;;;;;;1.00;0.73;;;;;;;8.85;100.00;95427.00;5097550;28;20573;-57
2023/10/28 05:49:07;;;;;;;1.70;0.70;;;;;;;8.82;100.00;95422.84;5115139;28;20212;-56
2023/10/28 05:51:36;;;;;;;1.13;0.80;;;;;;;8.89;100.00;95437.03;5115454;28;20240;-56
2023/10/28 05:54:03;;;;;;;1.80;1.00;;;;;;;8.96;100.00;95439.88;5115677;28;20197;-55
2023/10/28 05:56:31;;;;;;;0.67;0.67;;;;;;;9.12;100.00;95444.34;5115897;28;20292;-56
2023/10/28 05:58:58;;;;;;;1.73;0.93;;;;;;;9.18;100.00;95456.84;5115493;28;20598;-56
2023/10/28 06:01:25;;;;;;;1.50;1.10;;;;;;;9.15;100.00;95444.81;5115576;28;20292;-56
2023/10/28 06:03:51;;;;;;;2.97;1.20;;;;;;;9.17;100.00;95442.03;5115171;28;20204;-56
2023/10/28 06:06:18;;;;;;;1.13;0.80;;;;;;;9.25;100.00;95448.13;5116625;28;20201;-56
2023/10/28 06:08:44;;;;;;;0.97;0.80;;;;;;;9.34;100.00;95449.81;5118264;28;20193;-56
2023/10/28 06:11:11;;;;;;;1.87;0.90;;;;;;;9.40;100.00;95448.31;5118151;28;20210;-56
2023/10/28 06:13:38;;;;;;;0.63;0.60;;;;;;;9.49;100.00;95452.59;5117805;28;20236;-55
2023/10/28 06:16:06;;;;;;;1.70;0.67;;;;;;;9.55;100.00;95456.38;5118442;28;20219;-55
2023/10/28 06:18:35;;;;;;;0.70;0.70;;;;;;;9.64;100.00;95453.56;5117626;28;20626;-56
2023/10/28 06:21:01;;;;;;;0.67;0.53;;;;;;;9.73;100.00;95455.22;5117344;28;20197;-56
2023/10/28 06:23:28;;;;;;;0.60;0.60;;;;;;;9.80;100.00;95456.22;5118656;28;20205;-56
2023/10/28 06:25:54;;;;;;;0.60;0.60;;;;;;;9.82;100.00;95453.38;5118424;28;20201;-55
2023/10/28 06:28:21;;;;;;;0.60;0.60;;;;;;;9.89;100.00;95460.47;5119823;28;20201;-56
2023/10/28 06:30:49;;;;;;;0.93;0.90;;;;;;;9.89;100.00;95463.13;5122117;28;20308;-56
2023/10/28 06:33:16;;;;;;;1.50;0.50;;;;;;;9.96;100.00;95463.25;5119563;28;20221;-56
2023/10/28 06:35:43;;;;;;;1.37;0.60;;;;;;;9.94;100.00;95463.44;5119953;28;20197;-55
2023/10/28 06:38:09;;;;;;;1.23;0.50;;;;;;;10.07;100.00;95464.72;5119945;28;20205;-56
2023/10/28 06:40:37;;;;;;;0.87;0.50;;;;;;;10.08;100.00;95464.56;5135392;28;20189;-56
2023/10/28 06:43:04;;;;;;;1.10;0.80;;;;;;;10.15;100.00;95451.53;5135683;28;20200;-55
2023/10/28 06:45:31;;;;;;;2.70;0.47;;;;;;;10.18;100.00;95454.66;5120586;28;20641;-56
2023/10/28 06:47:59;;;;;;;0.93;0.93;;;;;;;10.19;100.00;95447.56;5120831;28;20206;-56
2023/10/28 06:50:25;;;;;;;0.70;0.70;;;;;;;10.24;100.00;95455.78;5116297;28;20205;-56
2023/10/28 06:52:52;;;;;;;1.37;0.53;;;;;;;10.22;100.00;95455.16;5115098;28;20224;-56
2023/10/28 06:55:18;;;;;;;1.77;0.53;;;;;;;10.28;100.00;95454.47;5118464;28;20197;-56
2023/10/28 06:57:45;;;;;;;1.80;0.50;;;;;;;10.33;100.00;95465.38;5117371;28;21258;-57
2023/10/28 07:00:13;;;;;;;1.47;0.40;;;;;;;10.30;100.00;95465.69;5116176;28;20288;-56
2023/10/28 07:02:40;;;;;;;1.13;0.50;;;;;;;10.36;100.00;95462.38;5117678;28;20273;-56
2023/10/28 07:05:09;;;;;;;1.37;0.60;;;;;;;10.51;100.00;95465.13;5116661;28;20193;-55
2023/10/28 07:07:35;;;;;;;0.40;0.40;;;;;;;10.52;100.00;95467.63;5115344;28;20520;-56
2023/10/28 07:10:02;;;;;;;1.67;0.60;;;;;;;10.59;100.00;95463.28;5114602;28;20206;-56
2023/10/28 07:12:28;;;;;;;1.30;0.43;;;;;;;10.64;100.00;95455.66;5114466;28;20264;-56
2023/10/28 07:14:55;;;;;;;1.10;0.87;;;;;;;10.74;100.00;95458.91;5114332;28;20197;-55
2023/10/28 07:17:27;;;;;;;1.17;0.60;;;;;;;10.70;100.00;95465.53;5114971;28;20637;-55
2023/10/28 07:19:54;;;;;;;0.67;0.60;;;;;;;10.80;100.00;95463.53;5113728;28;20193;-55
2023/10/28 07:22:22;;;;;;;0.67;0.40;;;;;;;10.86;100.00;95465.47;5114505;28;20216;-55
2023/10/28 07:24:49;;;;;;;0.43;0.40;;;;;;;10.82;100.00;95463.34;5117767;28;20529;-56
2023/10/28 07:27:16;;;;;;;0.57;0.40;;;;;;;10.90;100.00;95466.78;5116127;28;20228;-56
2023/10/28 07:29:44;;;;;;;0.60;0.57;;;;;;;10.95;100.00;95464.41;5116160;28;20200;-56
2023/10/28 07:32:10;;;;;;;0.77;0.60;;;;;;;10.95;100.00;95463.59;5117250;28;20217;-56
2023/10/28 07:34:38;;;;;;;1.13;0.80;;;;;;;11.01;100.00;95472.66;5114961;28;20212;-58
2023/10/28 07:37:05;;;;;;;1.07;0.70;;;;;;;11.05;100.00;95453.63;5113986;28;20197;-56
2023/10/28 07:39:35;;;;;;;1.17;0.63;;;;;;;11.05;100.00;95474.78;5114567;28;20271;-56
2023/10/28 07:42:04;;;;;;;1.33;0.60;;;;;;;11.10;100.00;95471.59;5114538;28;20560;-56
2023/10/28 07:44:30;;;;;;;0.67;0.60;;;;;;;11.15;100.00;95466.63;5112843;28;20261;-56
2023/10/28 07:46:57;;;;;;;1.80;0.63;;;;;;;11.17;100.00;95467.25;5114033;28;20209;-57
2023/10/28 07:49:25;;;;;;;0.60;0.60;;;;;;;11.21;100.00;95473.84;5095138;28;20197;-56
2023/10/28 07:51:51;;;;;;;1.93;0.97;;;;;;;11.23;100.00;95477.16;5113569;28;20201;-56
2023/10/28 07:54:18;;;;;;;0.67;0.67;;;;;;;11.30;100.00;95472.81;5112602;28;20209;-56
2023/10/28 07:56:45;;;;;;;0.77;0.63;;;;;;;11.29;100.00;95476.47;5112442;28;20205;-56
2023/10/28 07:59:12;;;;;;;1.17;0.70;;;;;;;11.29;100.00;95477.28;5111256;28;20719;-56
2023/10/28 08:01:39;;;;;;;1.63;0.67;;;;;;;11.35;100.00;95475.75;5112266;28;20625;-56
2023/10/28 08:04:14;;;;;;;1.37;0.77;;;;;;;11.39;100.00;95482.34;5112139;28;20225;-56
2023/10/28 08:06:42;;;;;;;1.40;0.70;;;;;;;11.42;100.00;95484.63;5112584;28;20568;-56
2023/10/28 08:09:09;;;;;;;0.80;0.80;;;;;;;11.39;100.00;95492.91;5113441;28;20558;-55
2023/10/28 08:11:37;;;;;;;0.60;0.43;;;;;;;11.46;100.00;95499.16;5095897;28;20246;-56
2023/10/28 08:14:05;;;;;;;0.63;0.60;;;;;;;11.57;100.00;95503.22;5113202;28;20228;-56
2023/10/28 08:16:34;;;;;;;0.43;0.43;;;;;;;11.64;100.00;95502.34;5113711;28;20205;-55
2023/10/28 08:19:03;;;;;;;0.50;0.40;;;;;;;11.58;100.00;95497.75;5113467;28;20592;-55
2023/10/28 08:21:29;;;;;;;0.50;0.50;;;;;;;11.67;100.00;95512.56;5113631;28;20211;-55
2023/10/28 08:23:56;;;;;;;0.60;0.60;;;;;;;11.67;100.00;95515.22;5112666;28;20193;-55
2023/10/28 08:26:22;;;;;;;2.27;0.67;;;;;;;11.79;100.00;95519.16;5111729;28;20228;-55
2023/10/28 08:28:50;;;;;;;1.00;0.60;;;;;;;11.91;100.00;95519.53;5111404;28;20204;-56
2023/10/28 08:31:18;;;;;;;1.27;0.67;;;;;;;12.00;100.00;95525.59;5112095;28;20209;-56
2023/10/28 08:33:44;;;;;;;0.70;0.60;;;;;;;12.09;100.00;95535.94;5111784;28;20693;-56
2023/10/28 08:36:11;;;;;;;1.00;0.73;;;;;;;12.11;100.00;95541.06;5111783;28;20204;-56
2023/10/28 08:38:38;;;;;;;0.70;0.70;;;;;;;12.26;100.00;95540.06;5111866;28;20197;-55
2023/10/28 08:41:05;;;;;;;0.70;0.70;;;;;;;12.30;100.00;95541.38;5112925;28;20205;-55
2023/10/28 08:43:36;;;;;;;1.70;0.83;;;;;;;12.25;100.00;95541.09;5111129;28;20237;-55
2023/10/28 08:46:05;;;;;;;0.70;0.60;;;;;;;12.32;100.00;95543.84;5112788;28;20632;-55
2023/10/28 08:48:34;;;;;;;1.87;0.90;;;;;;;12.32;100.00;95533.25;5112777;28;21340;-56
2023/10/28 08:51:01;;;;;;;0.97;0.50;;;;;;;12.47;100.00;95536.72;5112433;28;20205;-56
2023/10/28 08:53:29;;;;;;;1.70;0.87;;;;;;;12.64;100.00;95543.53;5094783;28;20584;-56
2023/10/28 08:56:01;;;;;;;1.13;0.80;;;;;;;12.83;100.00;95540.31;5112514;28;20634;-56
2023/10/28 08:58:27;;;;;;;1.47;0.67;;;;;;;12.88;100.00;95542.41;5113696;28;20453;-55
2023/10/28 09:01:01;;;;;;;1.53;0.87;;;;;;;13.00;100.00;95535.66;5127440;28;20193;-56
2023/10/28 09:03:30;;;;;;;3.33;0.90;;;;;;;13.26;95.32;95548.44;5125467;28;20551;-56
2023/10/28 09:06:00;;;;;;;1.90;0.90;;;;;;;13.36;95.41;95541.81;5121791;28;20197;-55
2023/10/28 09:08:27;;;;;;;2.53;0.80;;;;;;;13.70;95.71;95548.31;5112846;28;20201;-55
2023/10/28 09:10:54;;;;;;;0.97;0.73;;;;;;;14.01;94.77;95545.34;5111918;28;20197;-56
2023/10/28 09:13:21;;;;;;;1.50;0.70;;;;;;;14.19;92.07;95543.06;5110953;28;20225;-55
2023/10/28 09:15:48;;;;;;;1.20;0.80;;;;;;;14.10;90.32;95541.56;5111688;28;20285;-56
2023/10/28 09:18:16;;;;;;;3.42;1.45;;;;;;;14.41;92.79;95542.03;5111744;28;20208;-56
2023/10/28 09:20:46;;;;;;;1.52;1.00;;;;;;;14.56;93.17;95534.75;5112353;28;20200;-56
2023/10/28 09:23:14;;;;;;;1.67;0.95;;;;;;;14.70;93.69;95535.69;5112470;28;20606;-55
2023/10/28 09:25:43;;;;;;;0.85;0.82;;;;;;;14.88;93.70;95536.81;5112936;28;20197;-56
2023/10/28 09:28:17;;;;;;;1.10;0.85;;;;;;;15.13;94.89;95537.13;5111700;28;20201;-55
2023/10/28 09:30:44;;;;;;;0.90;0.80;;;;;;;15.51;87.48;95532.22;5112883;28;20197;-56
2023/10/28 09:33:12;;;;;;;1.48;0.70;;;;;;;15.80;86.83;95536.41;5112188;28;20245;-56
2023/10/28 09:35:41;;;;;;;2.20;0.98;;;;;;;15.76;88.13;95541.31;5111921;28;20205;-56
2023/10/28 09:38:08;;;;;;;0.77;0.68;;;;;;;16.18;86.67;95536.63;5111285;28;20209;-55
2023/10/28 09:40:38;;;;;;;1.23;0.60;;;;;;;16.35;81.82;95529.88;5111650;28;20277;-55
2023/10/28 09:43:04;;;;;;;2.80;1.17;;;;;;;16.60;79.37;95525.56;5110601;28;20197;-55
2023/10/28 09:45:33;;;;;;;0.60;0.60;;;;;;;16.24;80.25;95528.63;5111540;28;20254;-55
2023/10/28 09:48:01;;;;;;;0.68;0.60;;;;;;;16.48;79.43;95526.34;5111319;28;20225;-55
2023/10/28 09:50:31;;;;;;;0.90;0.90;;;;;;;16.56;80.63;95527.00;5111868;28;20216;-57
2023/10/28 09:52:59;;;;;;;2.58;0.82;;;;;;;17.01;77.27;95519.09;5111307;28;20213;-55
2023/10/28 09:55:29;;;;;;;0.90;0.60;;;;;;;17.16;75.70;95522.34;5111812;28;20204;-56
2023/10/28 09:58:11;;;;;;;1.38;0.50;;;;;;;17.82;72.63;95526.38;5112966;28;20201;-56
2023/10/28 10:00:39;;;;;;;0.95;0.70;;;;;;;17.75;72.51;95525.59;5121150;28;20193;-56
2023/10/28 10:03:13;;;;;;;1.35;0.77;;;;;;;18.91;66.82;95522.47;5125929;28;20198;-56
2023/10/28 10:05:42;;;;;;;1.95;0.93;;;;;;;19.43;62.90;95523.75;5124887;28;20553;-56
2023/10/28 10:08:18;;;;;;;2.90;0.68;;;;;;;20.37;59.75;95523.88;5125994;28;20193;-55
2023/10/28 10:10:46;;;;;;;2.45;0.90;;;;;;;20.85;61.20;95526.38;5127106;28;20691;-58
2023/10/28 10:13:16;;;;;;;1.13;0.80;;;;;;;21.45;56.58;95526.09;5113465;28;20228;-56
2023/10/28 10:15:45;;;;;;;2.47;0.80;;;;;;;21.21;53.20;95519.97;5111599;28;20209;-58
2023/10/28 10:18:12;;;;;;;0.63;0.50;;;;;;;21.31;55.37;95520.19;5110871;28;20197;-57
2023/10/28 10:20:43;;;;;;;0.88;0.70;;;;;;;21.61;56.34;95514.63;5111128;28;20205;-56
2023/10/28 10:23:11;;;;;;;0.88;0.50;;;;;;;21.61;54.50;95515.41;5112399;28;20224;-57
2023/10/28 10:25:43;;;;;;;1.05;0.70;;;;;;;21.79;54.37;95517.94;5114087;28;20650;-58
2023/10/28 10:28:15;;;;;;;2.13;0.50;;;;;;;21.48;56.33;95510.31;5096670;28;20272;-56
2023/10/28 10:30:42;;;;;;;1.05;0.70;;;;;;;21.26;56.72;95512.81;5114897;28;20296;-57
2023/10/28 10:33:10;;;;;;;2.13;0.65;;;;;;;21.10;57.71;95502.81;5115117;28;20231;-55
2023/10/28 10:35:41;;;;;;;0.60;0.60;;;;;;;21.29;57.34;95503.47;5115441;28;20244;-57
2023/10/28 10:38:08;;;;;;;0.98;0.80;;;;;;;21.68;55.62;95507.22;5114405;28;20228;-55
2023/10/28 10:40:37;;;;;;;1.08;0.85;;;;;;;21.22;56.21;95506.28;5096399;28;20205;-56
2023/10/28 10:43:05;;;;;;;0.57;0.57;;;;;;;20.93;58.88;95504.56;5111788;28;20193;-55
2023/10/28 10:45:35;;;;;;;2.30;0.80;;;;;;;20.66;56.87;95503.38;5114210;28;20197;-56
2023/10/28 10:48:02;;;;;;;2.08;0.98;;;;;;;20.05;59.71;95509.09;5117566;28;20190;-54
2023/10/28 10:50:30;;;;;;;1.20;0.80;;;;;;;19.79;58.78;95511.09;5127533;28;20207;-55
2023/10/28 10:52:59;;;;;;;1.50;0.90;;;;;;;19.22;61.58;95503.56;5122493;28;20225;-55
2023/10/28 10:55:28;;;;;;;1.88;0.90;;;;;;;18.61;63.06;95501.72;5127385;28;20296;-54
2023/10/28 10:57:57;;;;;;;2.03;0.82;;;;;;;18.11;64.79;95494.72;5119923;28;20345;-56
2023/10/28 11:00:24;;;;;;;1.27;0.65;;;;;;;17.71;63.73;95492.31;5114500;28;20209;-56
2023/10/28 11:02:56;;;;;;;2.03;0.80;;;;;;;17.87;68.67;95489.13;5115914;28;20197;-56
2023/10/28 11:05:23;;;;;;;1.02;0.80;;;;;;;17.85;74.41;95488.50;5115291;28;20201;-57
2023/10/28 11:07:51;;;;;;;2.05;0.70;;;;;;;17.41;68.99;95483.19;5114887;28;20205;-55
2023/10/28 11:10:22;;;;;;;1.17;1.00;;;;;;;17.67;70.08;95483.09;5116167;28;20295;-56
2023/10/28 11:12:50;;;;;;;1.17;0.77;;;;;;;17.59;68.85;95488.69;5114924;28;20221;-56
2023/10/28 11:15:17;;;;;;;2.15;0.85;;;;;;;17.59;69.37;95480.66;5113528;28;20506;-56
2023/10/28 11:17:44;;;;;;;1.73;0.80;;;;;;;17.65;70.76;95482.47;5113670;28;20284;-56
2023/10/28 11:20:19;;;;;;;1.58;1.02;;;;;;;17.38;70.30;95487.13;5125039;28;20204;-55
2023/10/28 11:22:46;;;;;;;2.10;1.15;;;;;;;17.27;70.21;95471.75;5133652;28;20200;-57
2023/10/28 11:25:13;;;;;;;1.50;0.70;;;;;;;17.29;69.20;95463.50;5136136;28;20192;-57
2023/10/28 11:27:39;;;;;;;2.50;1.50;;;;;;;17.11;72.19;95455.41;5129592;28;20204;-58
2023/10/28 11:30:08;;;;;;;2.85;1.13;;;;;;;17.15;71.77;95467.28;5114813;28;20657;-56